Time,TemperatureF,DewpointF,PressureIn,WindDirection,WindDirectionDegrees,WindSpeedMPH,WindSpeedGustMPH,Humidity,HourlyPrecipIn,Conditions,Clouds,dailyrainin,SoftwareType,DateUTC
2013-03-10 00:01:00,60.0,40.0,30.09,West,281,4.0,6.0,47,0.00,,,0.00,,2013-03-10 07:01:00,
2013-03-10 00:11:00,59.0,39.0,30.09,NW,315,2.0,4.0,48,0.00,,,0.00,,2013-03-10 07:11:00,
2013-03-10 00:21:00,59.0,39.0,30.09,NW,315,2.0,4.0,48,0.00,,,0.00,,2013-03-10 07:21:00,
2013-03-10 00:31:00,58.0,39.0,30.09,NW,311,0.0,1.0,49,0.00,,,0.00,,2013-03-10 07:31:00,
2013-03-10 00:41:00,58.0,40.0,30.09,NW,310,0.0,0.0,51,0.00,,,0.00,,2013-03-10 07:41:00,
2013-03-10 00:52:00,58.0,40.0,30.09,NW,310,0.0,0.0,51,0.00,,,0.00,,2013-03-10 07:52:00,
2013-03-10 01:01:00,57.0,40.0,30.09,NW,306,0.0,0.0,52,0.00,,,0.00,,2013-03-10 08:01:00,
2013-03-10 01:11:00,57.0,40.0,30.09,NW,306,0.0,0.0,52,0.00,,,0.00,,2013-03-10 08:11:00,
2013-03-10 01:21:00,57.0,41.0,30.10,NW,306,0.0,0.0,54,0.00,,,0.00,,2013-03-10 08:21:00,
2013-03-10 01:31:00,56.0,40.0,30.10,NW,307,0.0,0.0,55,0.00,,,0.00,,2013-03-10 08:31:00,
2013-03-10 01:42:00,55.0,40.0,30.10,NW,307,0.0,0.0,56,0.00,,,0.00,,2013-03-10 08:42:00,
2013-03-10 01:51:00,55.0,40.0,30.10,NW,307,0.0,0.0,56,0.00,,,0.00,,2013-03-10 08:51:00,
2013-03-10 02:01:00,54.0,40.0,30.11,South,185,1.0,2.0,59,0.00,,,0.00,,2013-03-10 09:01:00,
2013-03-10 02:11:00,54.0,40.0,30.11,South,185,1.0,2.0,59,0.00,,,0.00,,2013-03-10 09:11:00,
2013-03-10 02:21:00,53.0,39.0,30.11,South,185,0.0,1.0,60,0.00,,,0.00,,2013-03-10 09:21:00,
2013-03-10 02:31:00,53.0,40.0,30.11,ESE,123,1.0,1.0,62,0.00,,,0.00,,2013-03-10 09:31:00,
2013-03-10 02:41:00,53.0,40.0,30.11,ESE,123,1.0,1.0,62,0.00,,,0.00,,2013-03-10 09:41:00,
2013-03-10 02:51:00,53.0,40.0,30.11,ESE,123,0.0,0.0,62,0.00,,,0.00,,2013-03-10 09:51:00,
2013-03-10 03:01:00,52.0,40.0,30.11,SSW,204,1.0,2.0,63,0.00,,,0.00,,2013-03-10 10:01:00,
2013-03-10 03:11:00,52.0,40.0,30.11,SSW,204,1.0,2.0,63,0.00,,,0.00,,2013-03-10 10:11:00,
2013-03-10 03:21:00,52.0,40.0,30.11,NW,320,3.0,4.0,64,0.00,,,0.00,,2013-03-10 10:21:00,
2013-03-10 03:31:00,52.0,39.0,30.11,NW,322,0.0,0.0,62,0.00,,,0.00,,2013-03-10 10:31:00,
2013-03-10 03:41:00,52.0,40.0,30.11,NW,322,1.0,2.0,63,0.00,,,0.00,,2013-03-10 10:41:00,
2013-03-10 03:51:00,52.0,40.0,30.11,NW,322,1.0,2.0,63,0.00,,,0.00,,2013-03-10 10:51:00,
2013-03-10 04:01:00,52.0,40.0,30.11,NNW,328,0.0,2.0,63,0.00,,,0.00,,2013-03-10 11:01:00,
2013-03-10 04:11:00,51.0,40.0,30.11,WNW,285,0.0,0.0,65,0.00,,,0.00,,2013-03-10 11:11:00,
2013-03-10 04:21:00,51.0,40.0,30.11,WNW,285,0.0,0.0,65,0.00,,,0.00,,2013-03-10 11:21:00,
2013-03-10 04:31:00,51.0,40.0,30.11,WNW,291,0.0,0.0,66,0.00,,,0.00,,2013-03-10 11:31:00,
2013-03-10 04:41:00,51.0,40.0,30.11,WNW,291,0.0,0.0,66,0.00,,,0.00,,2013-03-10 11:41:00,
2013-03-10 04:52:00,51.0,40.0,30.12,WNW,291,1.0,1.0,67,0.00,,,0.00,,2013-03-10 11:52:00,
2013-03-10 05:01:00,50.0,40.0,30.12,NNE,20,0.0,1.0,68,0.00,,,0.00,,2013-03-10 12:01:00,
2013-03-10 05:11:00,50.0,40.0,30.12,NNE,20,0.0,1.0,68,0.00,,,0.00,,2013-03-10 12:11:00,
2013-03-10 05:21:00,50.0,40.0,30.12,NNE,20,0.0,0.0,68,0.00,,,0.00,,2013-03-10 12:21:00,
2013-03-10 05:31:00,49.0,40.0,30.13,NNE,20,1.0,2.0,70,0.00,,,0.00,,2013-03-10 12:31:00,
2013-03-10 05:41:00,49.0,40.0,30.13,NNE,20,1.0,2.0,70,0.00,,,0.00,,2013-03-10 12:41:00,
2013-03-10 05:51:00,49.0,40.0,30.13,NNE,22,2.0,3.0,70,0.00,,,0.00,,2013-03-10 12:51:00,
2013-03-10 06:01:00,49.0,40.0,30.14,NNE,17,3.0,4.0,70,0.00,,,0.00,,2013-03-10 13:01:00,
2013-03-10 06:11:00,49.0,40.0,30.14,NNE,17,3.0,4.0,70,0.00,,,0.00,,2013-03-10 13:11:00,
2013-03-10 06:21:00,49.0,40.0,30.14,WNW,299,1.0,3.0,70,0.00,,,0.00,,2013-03-10 13:21:00,
2013-03-10 06:31:00,48.0,39.0,30.14,West,262,0.0,0.0,71,0.00,,,0.00,,2013-03-10 13:31:00,
2013-03-10 06:41:00,48.0,39.0,30.14,West,262,0.0,0.0,71,0.00,,,0.00,,2013-03-10 13:41:00,
2013-03-10 06:52:00,48.0,39.0,30.15,NNE,17,1.0,3.0,71,0.00,,,0.00,,2013-03-10 13:52:00,
2013-03-10 07:01:00,48.0,38.0,30.16,NNW,339,3.0,4.0,67,0.00,,,0.00,,2013-03-10 14:01:00,
2013-03-10 07:11:00,48.0,38.0,30.16,NNW,339,3.0,4.0,67,0.00,,,0.00,,2013-03-10 14:11:00,
2013-03-10 07:21:00,49.0,38.0,30.16,North,354,3.0,4.0,65,0.00,,,0.00,,2013-03-10 14:21:00,
2013-03-10 07:31:00,50.0,38.0,30.16,North,349,2.0,3.0,63,0.00,,,0.00,,2013-03-10 14:31:00,
2013-03-10 07:41:00,50.0,38.0,30.16,North,349,2.0,3.0,63,0.00,,,0.00,,2013-03-10 14:41:00,
2013-03-10 07:51:00,50.0,39.0,30.16,NNW,339,2.0,3.0,65,0.00,,,0.00,,2013-03-10 14:51:00,
2013-03-10 08:01:00,51.0,38.0,30.17,NNW,347,3.0,4.0,61,0.00,,,0.00,,2013-03-10 15:01:00,
2013-03-10 08:11:00,51.0,38.0,30.17,NNW,347,3.0,4.0,61,0.00,,,0.00,,2013-03-10 15:11:00,
2013-03-10 08:21:00,54.0,38.0,30.17,NNW,337,3.0,4.0,55,0.00,,,0.00,,2013-03-10 15:21:00,
2013-03-10 08:31:00,59.0,38.0,30.18,WNW,292,4.0,5.0,45,0.00,,,0.00,,2013-03-10 15:31:00,
2013-03-10 08:41:00,59.0,38.0,30.18,WNW,292,4.0,5.0,45,0.00,,,0.00,,2013-03-10 15:41:00,
2013-03-10 08:51:00,61.0,38.0,30.18,NW,314,5.0,10.0,43,0.00,,,0.00,,2013-03-10 15:51:00,
2013-03-10 09:01:00,64.0,39.0,30.19,NNE,19,4.0,6.0,39,0.00,,,0.00,,2013-03-10 16:01:00,
2013-03-10 09:21:00,65.0,38.0,30.19,NNW,339,5.0,10.0,37,0.00,,,0.00,,2013-03-10 16:21:00,
2013-03-10 09:31:00,65.0,37.0,30.20,NNW,328,7.0,9.0,35,0.00,,,0.00,,2013-03-10 16:31:00,
2013-03-10 09:41:00,65.0,37.0,30.20,NNW,328,7.0,9.0,35,0.00,,,0.00,,2013-03-10 16:41:00,
2013-03-10 09:51:00,66.0,36.0,30.20,North,4,7.0,10.0,33,0.00,,,0.00,,2013-03-10 16:51:00,
2013-03-10 10:01:00,67.0,35.0,30.20,NNW,343,10.0,12.0,31,0.00,,,0.00,,2013-03-10 17:01:00,
2013-03-10 10:11:00,67.0,35.0,30.20,NNW,343,10.0,12.0,31,0.00,,,0.00,,2013-03-10 17:11:00,
2013-03-10 10:21:00,68.0,35.0,30.20,North,4,9.0,12.0,30,0.00,,,0.00,,2013-03-10 17:21:00,
2013-03-10 10:31:00,68.0,35.0,30.20,NNW,338,9.0,11.0,30,0.00,,,0.00,,2013-03-10 17:31:00,
2013-03-10 10:41:00,68.0,35.0,30.20,NNW,338,9.0,11.0,30,0.00,,,0.00,,2013-03-10 17:41:00,
2013-03-10 10:51:00,69.0,36.0,30.20,North,351,9.0,15.0,30,0.00,,,0.00,,2013-03-10 17:51:00,
2013-03-10 11:01:00,70.0,34.0,30.20,North,4,10.0,14.0,27,0.00,,,0.00,,2013-03-10 18:01:00,
2013-03-10 11:11:00,70.0,34.0,30.19,North,359,12.0,20.0,27,0.00,,,0.00,,2013-03-10 18:11:00,
2013-03-10 11:21:00,70.0,34.0,30.19,North,359,12.0,20.0,27,0.00,,,0.00,,2013-03-10 18:21:00,
2013-03-10 11:31:00,70.0,34.0,30.19,North,9,9.0,14.0,26,0.00,,,0.00,,2013-03-10 18:31:00,
2013-03-10 11:41:00,70.0,34.0,30.19,North,9,9.0,14.0,26,0.00,,,0.00,,2013-03-10 18:41:00,
2013-03-10 11:52:00,71.0,33.0,30.19,NNE,21,9.0,12.0,25,0.00,,,0.00,,2013-03-10 18:52:00,
2013-03-10 12:01:00,72.0,34.0,30.19,North,356,9.0,9.0,25,0.00,,,0.00,,2013-03-10 19:01:00,
2013-03-10 12:11:00,72.0,34.0,30.19,North,356,9.0,9.0,25,0.00,,,0.00,,2013-03-10 19:11:00,
2013-03-10 12:21:00,72.0,32.0,30.19,NNE,13,8.0,13.0,23,0.00,,,0.00,,2013-03-10 19:21:00,
2013-03-10 12:31:00,73.0,32.0,30.19,NNW,329,9.0,12.0,22,0.00,,,0.00,,2013-03-10 19:31:00,
2013-03-10 12:41:00,73.0,32.0,30.19,NNW,329,9.0,12.0,22,0.00,,,0.00,,2013-03-10 19:41:00,
2013-03-10 12:52:00,73.0,33.0,30.18,NW,322,10.0,16.0,23,0.00,,,0.00,,2013-03-10 19:52:00,
2013-03-10 13:01:00,74.0,33.0,30.18,NNE,26,10.0,13.0,22,0.00,,,0.00,,2013-03-10 20:01:00,
2013-03-10 13:12:00,74.0,33.0,30.18,NNE,26,10.0,13.0,22,0.00,,,0.00,,2013-03-10 20:12:00,
2013-03-10 13:21:00,74.0,33.0,30.17,NNW,339,9.0,9.0,22,0.00,,,0.00,,2013-03-10 20:21:00,
2013-03-10 13:32:00,75.0,32.0,30.16,NNW,332,9.0,14.0,21,0.00,,,0.00,,2013-03-10 20:32:00,
2013-03-10 13:42:00,75.0,32.0,30.16,NNW,332,9.0,14.0,21,0.00,,,0.00,,2013-03-10 20:42:00,
2013-03-10 13:52:00,75.0,29.0,30.15,NNW,346,6.0,9.0,18,0.00,,,0.00,,2013-03-10 20:52:00,
2013-03-10 14:01:00,75.0,29.0,30.14,North,350,9.0,13.0,18,0.00,,,0.00,,2013-03-10 21:01:00,
2013-03-10 14:12:00,75.0,29.0,30.14,North,350,9.0,13.0,18,0.00,,,0.00,,2013-03-10 21:12:00,
2013-03-10 14:22:00,75.0,29.0,30.13,North,7,7.0,8.0,18,0.00,,,0.00,,2013-03-10 21:22:00,
2013-03-10 14:31:00,75.0,30.0,30.13,NNE,21,9.0,11.0,19,0.00,,,0.00,,2013-03-10 21:31:00,
2013-03-10 14:41:00,75.0,30.0,30.13,NNE,21,9.0,11.0,19,0.00,,,0.00,,2013-03-10 21:41:00,
2013-03-10 14:52:00,75.0,30.0,30.12,NW,319,10.0,15.0,19,0.00,,,0.00,,2013-03-10 21:52:00,
2013-03-10 15:01:00,76.0,31.0,30.11,NNW,328,11.0,16.0,19,0.00,,,0.00,,2013-03-10 22:01:00,
2013-03-10 15:11:00,76.0,31.0,30.11,NNW,328,11.0,16.0,19,0.00,,,0.00,,2013-03-10 22:11:00,
2013-03-10 15:21:00,75.0,30.0,30.11,NNE,28,6.0,13.0,19,0.00,,,0.00,,2013-03-10 22:21:00,
2013-03-10 15:32:00,75.0,30.0,30.10,NNE,15,9.0,13.0,19,0.00,,,0.00,,2013-03-10 22:32:00,
2013-03-10 15:42:00,75.0,30.0,30.10,NNE,15,9.0,13.0,19,0.00,,,0.00,,2013-03-10 22:42:00,
2013-03-10 15:52:00,75.0,31.0,30.10,North,8,7.0,10.0,20,0.00,,,0.00,,2013-03-10 22:52:00,
2013-03-10 16:02:00,76.0,31.0,30.09,NNW,328,6.0,9.0,19,0.00,,,0.00,,2013-03-10 23:02:00,
2013-03-10 16:11:00,75.0,30.0,30.09,NE,40,5.0,5.0,19,0.00,,,0.00,,2013-03-10 23:11:00,
2013-03-10 16:22:00,75.0,30.0,30.09,NE,40,5.0,5.0,19,0.00,,,0.00,,2013-03-10 23:22:00,
2013-03-10 16:31:00,75.0,31.0,30.09,NNE,22,7.0,10.0,20,0.00,,,0.00,,2013-03-10 23:31:00,
2013-03-10 16:41:00,75.0,31.0,30.09,NNE,22,7.0,10.0,20,0.00,,,0.00,,2013-03-10 23:41:00,
2013-03-10 16:52:00,75.0,30.0,30.08,North,6,5.0,7.0,19,0.00,,,0.00,,2013-03-10 23:52:00,
2013-03-10 17:01:00,75.0,30.0,30.08,NNE,21,7.0,11.0,19,0.00,,,0.00,,2013-03-11 00:01:00,
2013-03-10 17:12:00,75.0,30.0,30.08,NNE,21,7.0,11.0,19,0.00,,,0.00,,2013-03-11 00:12:00,
2013-03-10 17:22:00,75.0,30.0,30.08,North,350,6.0,8.0,19,0.00,,,0.00,,2013-03-11 00:22:00,
2013-03-10 17:32:00,74.0,29.0,30.08,NNW,327,9.0,16.0,19,0.00,,,0.00,,2013-03-11 00:32:00,
2013-03-10 17:42:00,74.0,29.0,30.08,NNW,327,9.0,16.0,19,0.00,,,0.00,,2013-03-11 00:42:00,
2013-03-10 17:52:00,74.0,29.0,30.08,NNW,329,9.0,12.0,19,0.00,,,0.00,,2013-03-11 00:52:00,
2013-03-10 18:02:00,74.0,29.0,30.08,NNW,335,7.0,9.0,19,0.00,,,0.00,,2013-03-11 01:02:00,
2013-03-10 18:11:00,74.0,29.0,30.08,NNW,335,7.0,9.0,19,0.00,,,0.00,,2013-03-11 01:11:00,
2013-03-10 18:22:00,73.0,28.0,30.09,NNW,338,10.0,12.0,19,0.00,,,0.00,,2013-03-11 01:22:00,
2013-03-10 18:31:00,73.0,28.0,30.09,NW,316,6.0,11.0,19,0.00,,,0.00,,2013-03-11 01:31:00,
2013-03-10 18:42:00,73.0,28.0,30.09,NW,316,6.0,11.0,19,0.00,,,0.00,,2013-03-11 01:42:00,
2013-03-10 18:53:00,72.0,26.0,30.09,North,356,8.0,9.0,18,0.00,,,0.00,,2013-03-11 01:53:00,
2013-03-10 19:01:00,72.0,26.0,30.09,NNE,23,7.0,11.0,18,0.00,,,0.00,,2013-03-11 02:01:00,
2013-03-10 19:11:00,72.0,26.0,30.09,NNE,23,7.0,11.0,18,0.00,,,0.00,,2013-03-11 02:11:00,
2013-03-10 19:22:00,71.0,27.0,30.10,North,354,5.0,7.0,19,0.00,,,0.00,,2013-03-11 02:22:00,
2013-03-10 19:32:00,70.0,26.0,30.10,North,354,4.0,4.0,19,0.00,,,0.00,,2013-03-11 02:32:00,
2013-03-10 19:42:00,70.0,26.0,30.10,North,354,4.0,4.0,19,0.00,,,0.00,,2013-03-11 02:42:00,
2013-03-10 19:52:00,69.0,26.0,30.11,NNW,345,4.0,6.0,20,0.00,,,0.00,,2013-03-11 02:52:00,
2013-03-10 20:01:00,69.0,29.0,30.11,NNW,334,2.0,4.0,22,0.00,,,0.00,,2013-03-11 03:01:00,
2013-03-10 20:11:00,69.0,29.0,30.11,NNW,334,2.0,4.0,22,0.00,,,0.00,,2013-03-11 03:11:00,
2013-03-10 20:21:00,67.0,29.0,30.11,NNW,342,2.0,2.0,24,0.00,,,0.00,,2013-03-11 03:21:00,
2013-03-10 20:31:00,67.0,31.0,30.11,NNW,342,2.0,3.0,26,0.00,,,0.00,,2013-03-11 03:31:00,
2013-03-10 20:42:00,67.0,31.0,30.11,NNW,342,2.0,3.0,26,0.00,,,0.00,,2013-03-11 03:42:00,
2013-03-10 20:52:00,65.0,30.0,30.11,NNW,338,0.0,1.0,27,0.00,,,0.00,,2013-03-11 03:52:00,
2013-03-10 21:01:00,64.0,32.0,30.12,NNW,338,0.0,0.0,30,0.00,,,0.00,,2013-03-11 04:01:00,
2013-03-10 21:11:00,64.0,32.0,30.12,NNW,338,0.0,0.0,30,0.00,,,0.00,,2013-03-11 04:11:00,
2013-03-10 21:22:00,63.0,33.0,30.13,NNW,338,0.0,0.0,32,0.00,,,0.00,,2013-03-11 04:22:00,
2013-03-10 21:32:00,62.0,32.0,30.13,NNW,338,0.0,0.0,32,0.00,,,0.00,,2013-03-11 04:32:00,
2013-03-10 21:42:00,62.0,32.0,30.13,NNW,338,0.0,0.0,32,0.00,,,0.00,,2013-03-11 04:42:00,
2013-03-10 21:53:00,61.0,33.0,30.13,NNW,339,0.0,0.0,35,0.00,,,0.00,,2013-03-11 04:53:00,
2013-03-10 22:01:00,60.0,33.0,30.13,NNW,339,0.0,0.0,36,0.00,,,0.00,,2013-03-11 05:01:00,
2013-03-10 22:11:00,60.0,33.0,30.13,NNW,339,0.0,0.0,36,0.00,,,0.00,,2013-03-11 05:11:00,
2013-03-10 22:22:00,59.0,33.0,30.14,NNW,339,0.0,0.0,38,0.00,,,0.00,,2013-03-11 05:22:00,
2013-03-10 22:31:00,58.0,34.0,30.14,NNW,339,0.0,0.0,40,0.00,,,0.00,,2013-03-11 05:31:00,
2013-03-10 22:42:00,58.0,34.0,30.14,NNW,339,0.0,0.0,40,0.00,,,0.00,,2013-03-11 05:42:00,
2013-03-10 22:52:00,58.0,34.0,30.14,NNW,339,0.0,0.0,40,0.00,,,0.00,,2013-03-11 05:52:00,
2013-03-10 23:01:00,57.0,33.0,30.15,WSW,249,2.0,2.0,40,0.00,,,0.00,,2013-03-11 06:01:00,
2013-03-10 23:11:00,57.0,33.0,30.15,WSW,249,2.0,2.0,40,0.00,,,0.00,,2013-03-11 06:11:00,
2013-03-10 23:21:00,56.0,34.0,30.15,SSE,162,0.0,0.0,43,0.00,,,0.00,,2013-03-11 06:21:00,
2013-03-10 23:32:00,56.0,34.0,30.15,SSE,162,0.0,0.0,44,0.00,,,0.00,,2013-03-11 06:32:00,
2013-03-10 23:42:00,56.0,34.0,30.15,SSE,162,0.0,0.0,44,0.00,,,0.00,,2013-03-11 06:42:00,
2013-03-10 23:52:00,55.0,34.0,30.14,SSE,162,0.0,0.0,45,0.00,,,0.00,,2013-03-11 06:52:00,